Time;durP1;ratioP1;P1;durP2;ratioP2;P2;SDS_P1;SDS_P2;PMS_P1;PMS_P2;Temp;Humidity;BMP_temperature;BMP_pressure;BME280_temperature;BME280_humidity;BME280_pressure;Samples;Min_cycle;Max_cycle;Signal;HPM_P1;HPM_P2
2022/06/12 00:02:07;;;;;;;17.00;5.70;;;;;;;10.79;91.80;102184.88;4935778;29;20035;-52
2022/06/12 00:04:32;;;;;;;15.65;6.35;;;;;;;10.79;91.56;102184.88;4935838;29;20125;-52
2022/06/12 00:06:58;;;;;;;19.73;6.47;;;;;;;10.79;91.89;102178.00;4934930;29;20028;-52
2022/06/12 00:09:23;;;;;;;20.52;7.18;;;;;;;10.68;91.12;102171.47;4935643;29;20547;-52
2022/06/12 00:11:49;;;;;;;19.98;6.85;;;;;;;10.70;91.29;102174.97;4936014;29;20512;-52
2022/06/12 00:14:17;;;;;;;19.05;6.78;;;;;;;10.71;91.84;102179.34;4935091;29;20028;-52
2022/06/12 00:16:44;;;;;;;18.85;6.57;;;;;;;10.65;91.57;102176.44;4935842;29;20028;-51
2022/06/12 00:19:10;;;;;;;21.30;6.95;;;;;;;10.53;91.56;102182.75;4935527;29;20034;-52
2022/06/12 00:21:35;;;;;;;22.75;6.43;;;;;;;10.52;92.69;102178.41;4934971;29;20031;-53
2022/06/12 00:24:05;;;;;;;22.27;7.35;;;;;;;10.58;93.57;102182.09;4935753;29;20043;-51
2022/06/12 00:26:35;;;;;;;14.35;6.15;;;;;;;10.45;92.53;102176.31;4935238;29;20048;-51
2022/06/12 00:29:07;;;;;;;22.35;6.90;;;;;;;10.47;92.68;102176.38;4934884;29;20032;-52
2022/06/12 00:31:36;;;;;;;18.83;6.65;;;;;;;10.46;92.87;102172.94;4935800;29;20114;-51
2022/06/12 00:34:02;;;;;;;21.58;6.78;;;;;;;10.44;92.81;102179.69;4934817;29;20047;-52
2022/06/12 00:36:28;;;;;;;17.63;7.65;;;;;;;10.40;92.16;102182.91;4935481;29;20070;-51
2022/06/12 00:38:53;;;;;;;18.80;6.75;;;;;;;10.34;91.86;102175.75;4935673;29;20437;-52
2022/06/12 00:41:19;;;;;;;22.58;7.13;;;;;;;10.33;92.49;102181.69;4934902;29;20016;-52
2022/06/12 00:43:45;;;;;;;22.35;7.72;;;;;;;10.34;93.28;102172.25;4935620;29;20560;-52
2022/06/12 00:46:41;;;;;;;21.25;7.20;;;;;;;10.38;93.68;102174.25;4938154;29;20035;-51
2022/06/12 00:49:19;;;;;;;31.00;8.27;;;;;;;10.46;94.34;102172.06;4938297;29;20480;-52
2022/06/12 00:51:47;;;;;;;23.10;8.13;;;;;;;10.48;94.60;102181.66;4939432;29;20027;-52
2022/06/12 00:54:14;;;;;;;19.55;7.13;;;;;;;10.40;92.85;102182.91;4939098;29;20107;-51
2022/06/12 00:56:47;;;;;;;18.73;7.43;;;;;;;10.35;92.75;102184.34;4938431;29;20027;-52
2022/06/12 00:59:32;;;;;;;25.10;7.28;;;;;;;10.30;93.17;102180.63;4938796;29;20489;-51
2022/06/12 01:01:57;;;;;;;28.27;8.45;;;;;;;10.28;94.45;102177.13;4939140;29;20027;-51
2022/06/12 01:07:12;;;;;;;24.38;7.97;;;;;;;10.34;95.12;102167.09;4938833;29;20042;-48
2022/06/12 01:09:43;;;;;;;27.48;8.70;;;;;;;10.35;94.93;102174.03;4938271;29;20089;-52
2022/06/12 01:12:14;;;;;;;22.98;8.07;;;;;;;10.31;94.23;102172.97;4938687;29;20460;-52
2022/06/12 01:15:07;;;;;;;18.98;6.88;;;;;;;10.28;92.61;102171.97;4938881;29;20365;-51
2022/06/12 01:17:33;;;;;;;22.05;7.00;;;;;;;10.21;93.59;102171.63;4938149;29;20038;-52
2022/06/12 01:20:02;;;;;;;25.98;7.57;;;;;;;10.25;94.48;102176.94;4939140;29;20020;-52
2022/06/12 01:23:04;;;;;;;24.48;7.32;;;;;;;10.19;93.03;102174.94;4938505;29;20028;-52
2022/06/12 01:25:54;;;;;;;27.38;8.13;;;;;;;10.15;93.20;102175.59;4937789;29;20044;-52
2022/06/12 01:29:03;;;;;;;24.45;8.27;;;;;;;10.14;94.32;102174.69;4938643;29;20032;-52
2022/06/12 01:32:12;;;;;;;39.63;9.00;;;;;;;10.21;95.10;102171.63;4937812;29;20070;-52
2022/06/12 01:34:52;;;;;;;36.33;10.23;;;;;;;10.30;95.78;102173.81;4936152;29;20047;-50
2022/06/12 01:37:46;;;;;;;26.10;8.63;;;;;;;10.35;95.14;102163.72;4937830;29;20038;-52
2022/06/12 01:40:35;;;;;;;36.35;9.75;;;;;;;10.41;95.24;102168.34;4938310;29;20360;-52
2022/06/12 01:43:11;;;;;;;35.63;10.20;;;;;;;10.49;95.84;102161.91;4938176;29;20016;-52
2022/06/12 01:45:50;;;;;;;31.33;9.73;;;;;;;10.54;95.42;102165.59;4937840;29;20042;-52
2022/06/12 01:48:28;;;;;;;33.45;10.68;;;;;;;10.59;95.31;102168.38;4938140;29;20414;-52
2022/06/12 01:51:02;;;;;;;35.55;10.68;;;;;;;10.58;95.15;102161.47;4938212;29;20039;-52
2022/06/12 01:53:58;;;;;;;34.95;11.30;;;;;;;10.59;94.62;102163.22;4937836;29;20038;-52
2022/06/12 01:56:32;;;;;;;39.10;11.68;;;;;;;10.59;95.23;102158.97;4936974;29;20031;-52
2022/06/12 01:59:03;;;;;;;42.30;13.00;;;;;;;10.58;95.02;102166.63;4937367;29;20032;-52
2022/06/12 02:01:50;;;;;;;36.50;10.95;;;;;;;10.56;95.11;102157.94;4938014;29;20040;-51
2022/06/12 02:04:29;;;;;;;28.17;10.55;;;;;;;10.57;95.50;102160.56;4938053;29;20030;-52
2022/06/12 02:07:10;;;;;;;34.75;12.00;;;;;;;10.55;95.28;102157.06;4937209;29;20032;-52
2022/06/12 02:09:41;;;;;;;41.38;11.95;;;;;;;10.54;95.13;102165.59;4938012;29;20035;-52
2022/06/12 02:15:22;;;;;;;33.00;11.45;;;;;;;10.44;95.28;102161.66;4938072;29;20552;-52
2022/06/12 02:17:54;;;;;;;38.05;9.73;;;;;;;10.44;95.04;102165.94;4937094;29;20039;-51
2022/06/12 02:20:25;;;;;;;34.78;10.15;;;;;;;10.44;94.82;102168.50;4936862;29;20095;-52
2022/06/12 02:22:52;;;;;;;37.85;9.60;;;;;;;10.43;95.14;102167.63;4937751;29;20024;-53
2022/06/12 02:25:24;;;;;;;39.83;10.13;;;;;;;10.47;95.29;102169.56;4937556;29;20048;-52
2022/06/12 02:27:58;;;;;;;35.03;9.13;;;;;;;10.47;95.08;102163.50;4936734;29;20118;-52
2022/06/12 02:30:34;;;;;;;39.78;11.05;;;;;;;10.51;94.92;102168.91;4937421;29;20435;-52
2022/06/12 02:33:08;;;;;;;44.03;9.82;;;;;;;10.59;94.63;102163.22;4937374;29;20075;-52
2022/06/12 02:35:48;;;;;;;40.40;11.40;;;;;;;10.62;94.62;102160.81;4936643;29;20387;-51
2022/06/12 02:38:18;;;;;;;33.17;9.63;;;;;;;10.64;94.48;102161.78;4937118;29;20036;-52
2022/06/12 02:40:49;;;;;;;29.05;9.43;;;;;;;10.62;94.50;102158.25;4936660;29;20062;-52
2022/06/12 02:43:22;;;;;;;35.38;9.18;;;;;;;10.59;94.33;102148.66;4937211;29;20035;-52
2022/06/12 02:45:53;;;;;;;29.48;10.00;;;;;;;10.61;94.42;102152.19;4937290;29;20495;-52
2022/06/12 02:48:19;;;;;;;27.42;9.05;;;;;;;10.61;94.32;102147.03;4936510;29;20119;-52
2022/06/12 02:50:53;;;;;;;32.35;9.27;;;;;;;10.58;93.96;102146.88;4937316;29;20035;-52
2022/06/12 02:53:36;;;;;;;36.72;10.20;;;;;;;10.61;94.41;102151.31;4937032;29;20042;-51
2022/06/12 02:56:22;;;;;;;38.33;11.40;;;;;;;10.61;94.26;102143.56;4936083;29;20514;-52
2022/06/12 02:59:06;;;;;;;36.40;10.15;;;;;;;10.64;94.22;102148.88;4937256;29;20040;-52
2022/06/12 03:01:48;;;;;;;31.85;9.45;;;;;;;10.65;94.25;102143.81;4936935;29;20032;-52
2022/06/12 03:05:05;;;;;;;37.20;9.77;;;;;;;10.63;93.85;102136.81;4936553;29;20109;-52
2022/06/12 03:07:30;;;;;;;44.20;10.90;;;;;;;10.62;93.87;102153.09;4924707;29;20448;-52
2022/06/12 03:10:01;;;;;;;26.63;9.00;;;;;;;10.57;94.40;102144.25;4935876;29;20158;-52
2022/06/12 03:12:28;;;;;;;35.78;9.88;;;;;;;10.52;94.75;102150.06;4936520;29;20467;-52
2022/06/12 03:14:55;;;;;;;42.80;11.87;;;;;;;10.57;95.76;102151.97;4936499;29;20023;-52
2022/06/12 03:17:21;;;;;;;39.13;10.90;;;;;;;10.55;95.36;102146.75;4935796;29;20299;-51
2022/06/12 03:19:51;;;;;;;40.97;11.80;;;;;;;10.56;95.62;102157.94;4936725;29;20031;-52
2022/06/12 03:22:34;;;;;;;38.40;10.85;;;;;;;10.61;95.76;102156.47;4936601;29;20110;-52
2022/06/12 03:25:24;;;;;;;42.80;10.98;;;;;;;10.62;95.13;102163.41;4935763;29;20035;-52
2022/06/12 03:28:03;;;;;;;32.70;10.90;;;;;;;10.58;95.34;102161.47;4936439;29;20148;-52
2022/06/12 03:30:32;;;;;;;36.80;11.00;;;;;;;10.58;95.70;102157.19;4935794;29;20036;-52
2022/06/12 03:33:33;;;;;;;50.50;13.20;;;;;;;10.58;95.49;102157.19;4936303;29;20090;-51
2022/06/12 03:36:06;;;;;;;36.97;11.70;;;;;;;10.58;95.64;102151.16;4936354;29;20024;-52
2022/06/12 03:38:38;;;;;;;39.42;11.57;;;;;;;10.60;95.47;102154.69;4935618;29;20042;-52
2022/06/12 03:41:27;;;;;;;33.15;11.63;;;;;;;10.61;95.45;102156.47;4936216;29;20024;-52
2022/06/12 03:44:06;;;;;;;39.05;11.95;;;;;;;10.63;95.43;102165.19;4935276;29;20027;-52
2022/06/12 03:46:50;;;;;;;39.08;11.25;;;;;;;10.64;95.01;102167.81;4936349;29;20040;-52
2022/06/12 03:49:34;;;;;;;37.55;10.93;;;;;;;10.65;95.14;102158.38;4936125;29;20024;-52
2022/06/12 03:52:14;;;;;;;44.20;12.00;;;;;;;10.66;95.28;102160.16;4935203;29;20381;-52
2022/06/12 03:54:58;;;;;;;40.60;11.45;;;;;;;10.67;95.05;102152.50;4936228;29;20028;-52
2022/06/12 04:00:29;;;;;;;40.28;11.60;;;;;;;10.72;94.70;102163.06;4935374;29;20047;-52
2022/06/12 04:02:59;;;;;;;43.13;12.55;;;;;;;10.76;94.40;102167.56;4935986;29;20090;-52
2022/06/12 04:05:30;;;;;;;42.55;11.65;;;;;;;10.80;94.43;102161.72;4935138;29;20172;-50
2022/06/12 04:07:58;;;;;;;44.17;11.88;;;;;;;10.81;94.38;102160.94;4935751;29;20019;-52
2022/06/12 04:10:24;;;;;;;;;;;;;;;10.83;93.07;102167.06;4936227;29;20066;-51
2022/06/12 04:12:50;;;;;;;32.13;11.40;;;;;;;10.83;93.63;102166.16;4934803;29;19911;-50
2022/06/12 04:15:22;;;;;;;35.67;11.52;;;;;;;10.84;93.81;102173.09;4935566;29;20291;-51
2022/06/12 04:17:48;;;;;;;35.17;10.63;;;;;;;10.87;93.74;102156.09;4935906;29;20091;-52
2022/06/12 04:20:23;;;;;;;37.83;12.32;;;;;;;10.92;93.22;102163.16;4934313;29;20019;-51
2022/06/12 04:23:00;;;;;;;42.40;12.77;;;;;;;10.95;93.38;102163.28;4935882;29;20039;-50
2022/06/12 04:25:49;;;;;;;34.28;11.77;;;;;;;10.99;92.57;102165.25;4935436;29;20051;-52
2022/06/12 04:28:36;;;;;;;39.03;12.77;;;;;;;10.99;92.70;102168.69;4934932;29;20095;-52
2022/06/12 04:31:03;;;;;;;;;;;;;;;11.04;91.78;102174.97;4935925;29;20024;-52
2022/06/12 04:33:39;;;;;;;38.37;12.57;;;;;;;11.06;92.53;102172.44;4934763;29;19915;-52
2022/06/12 04:36:08;;;;;;;38.25;11.88;;;;;;;11.12;92.31;102167.59;4935341;29;20763;-52
2022/06/12 04:38:35;;;;;;;41.40;12.38;;;;;;;11.17;91.44;102175.56;4935393;29;20539;-52
2022/06/12 04:41:01;;;;;;;38.83;12.35;;;;;;;11.23;90.95;102178.44;4934772;29;20036;-52
2022/06/12 04:43:28;;;;;;;42.22;12.60;;;;;;;11.28;90.22;102178.66;4935393;29;20028;-51
2022/06/12 04:45:54;;;;;;;37.60;12.75;;;;;;;11.33;90.10;102179.78;4935449;29;20051;-52
2022/06/12 04:48:38;;;;;;;33.97;12.57;;;;;;;11.39;90.25;102177.50;4934628;29;20020;-52
2022/06/12 04:51:06;;;;;;;34.30;11.10;;;;;;;11.44;89.72;102181.16;4935504;29;20060;-53
2022/06/12 04:53:32;;;;;;;;;;;;;;;11.50;89.37;102181.47;4935999;29;20043;-52
2022/06/12 04:55:57;;;;;;;35.72;10.65;;;;;;;11.57;89.35;102180.06;4934450;29;19915;-52
2022/06/12 04:58:23;;;;;;;39.58;11.48;;;;;;;11.64;88.50;102176.94;4935276;29;20066;-52
2022/06/12 05:00:48;;;;;;;35.75;11.55;;;;;;;11.72;88.28;102174.69;4935205;29;20369;-52
2022/06/12 05:03:13;;;;;;;32.42;10.38;;;;;;;11.75;88.40;102172.28;4934467;29;20038;-52
2022/06/12 05:05:40;;;;;;;43.40;11.60;;;;;;;11.80;88.07;102165.63;4935482;29;20050;-51
2022/06/12 05:08:05;;;;;;;37.83;11.55;;;;;;;11.88;87.29;102167.66;4935221;29;20028;-52
2022/06/12 05:10:31;;;;;;;40.15;11.77;;;;;;;11.92;86.35;102160.13;4934488;29;20039;-53
2022/06/12 05:12:56;;;;;;;37.67;10.88;;;;;;;11.99;86.42;102163.91;4935215;29;20024;-52
2022/06/12 05:15:22;;;;;;;37.03;11.32;;;;;;;12.05;86.26;102165.88;4934364;29;20502;-52
2022/06/12 05:17:48;;;;;;;38.20;11.15;;;;;;;12.12;85.90;102165.31;4935002;29;20473;-51
2022/06/12 05:20:19;;;;;;;36.92;11.07;;;;;;;12.21;85.93;102170.03;4935310;29;20031;-52
2022/06/12 05:22:44;;;;;;;34.47;11.18;;;;;;;12.27;85.88;102168.59;4934565;29;20028;-52
2022/06/12 05:25:10;;;;;;;40.33;11.77;;;;;;;12.33;86.26;102163.69;4934721;29;20050;-51
2022/06/12 05:27:35;;;;;;;31.80;11.10;;;;;;;12.41;86.42;102169.19;4935293;29;20024;-52
2022/06/12 05:30:00;;;;;;;37.35;11.02;;;;;;;12.50;86.35;102166.13;4934141;29;20064;-49
2022/06/12 05:32:26;;;;;;;49.72;11.02;;;;;;;12.56;85.82;102168.94;4938067;29;20051;-49
2022/06/12 05:34:52;;;;;;;38.33;10.65;;;;;;;12.63;84.90;102172.72;4938635;29;20043;-49
2022/06/12 05:37:18;;;;;;;44.42;12.60;;;;;;;12.72;84.58;102170.50;4937632;29;20503;-49
2022/06/12 05:39:44;;;;;;;32.63;10.02;;;;;;;12.80;84.37;102171.69;4938541;29;20476;-48
2022/06/12 05:42:09;;;;;;;43.13;10.68;;;;;;;12.88;84.81;102163.38;4938277;29;20110;-49
2022/06/12 05:44:37;;;;;;;50.28;12.10;;;;;;;12.95;84.07;102170.56;4937541;29;20110;-48
2022/06/12 05:47:02;;;;;;;;;;;;;;;13.00;84.46;102175.13;4938772;29;20028;-51
2022/06/12 05:49:28;;;;;;;38.22;10.60;;;;;;;13.07;83.01;102171.06;4938372;29;19921;-52
2022/06/12 05:51:54;;;;;;;38.67;10.90;;;;;;;13.15;84.06;102174.84;4937314;29;20036;-48
2022/06/12 05:54:20;;;;;;;43.25;10.77;;;;;;;13.21;83.39;102178.50;4938131;29;20464;-48
2022/06/12 05:56:45;;;;;;;44.72;10.60;;;;;;;13.27;84.28;102173.56;4938087;29;20051;-52
2022/06/12 05:59:11;;;;;;;44.33;10.95;;;;;;;13.36;83.75;102180.81;4937038;29;20520;-52
2022/06/12 06:01:39;;;;;;;43.20;11.00;;;;;;;13.45;84.04;102182.13;4938294;29;20380;-49
2022/06/12 06:04:05;;;;;;;47.42;11.63;;;;;;;13.50;83.52;102183.19;4938025;29;20038;-49
2022/06/12 06:06:36;;;;;;;37.47;10.35;;;;;;;13.58;82.92;102180.00;4937294;29;20103;-49
2022/06/12 06:09:04;;;;;;;48.15;11.20;;;;;;;13.63;82.67;102181.94;4937822;29;20038;-49
2022/06/12 06:11:30;;;;;;;46.80;11.77;;;;;;;13.70;83.51;102175.28;4937461;29;20116;-49
2022/06/12 06:13:55;;;;;;;49.25;11.50;;;;;;;13.75;83.27;102181.53;4937387;29;20114;-48
2022/06/12 06:16:22;;;;;;;53.60;11.23;;;;;;;13.84;83.06;102188.78;4937775;29;20062;-49
2022/06/12 06:18:47;;;;;;;53.53;11.13;;;;;;;13.92;82.76;102191.66;4937131;29;20031;-53
2022/06/12 06:21:15;;;;;;;50.90;11.30;;;;;;;14.00;83.22;102195.41;4937692;29;20049;-53
2022/06/12 06:23:41;;;;;;;;;;;;;;;14.08;83.94;102193.97;4938130;29;20102;-53
2022/06/12 06:26:07;;;;;;;54.05;12.35;;;;;;;14.21;83.98;102189.25;4936593;29;20429;-54
2022/06/12 06:28:33;;;;;;;49.05;11.52;;;;;;;14.30;83.60;102190.44;4937683;29;20521;-51
2022/06/12 06:30:58;;;;;;;51.22;11.15;;;;;;;14.42;83.76;102192.59;4937605;29;20024;-53
2022/06/12 06:33:23;;;;;;;53.00;12.15;;;;;;;14.49;83.38;102194.56;4936847;29;20107;-53
2022/06/12 06:35:49;;;;;;;46.38;12.02;;;;;;;14.58;83.58;102191.41;4937550;29;20388;-53
2022/06/12 06:38:15;;;;;;;57.65;12.10;;;;;;;14.75;83.17;102193.75;4937286;29;20059;-53
2022/06/12 06:40:40;;;;;;;57.78;12.65;;;;;;;14.96;82.56;102193.56;4936613;29;20020;-53
2022/06/12 06:43:07;;;;;;;54.50;11.63;;;;;;;15.26;81.48;102198.00;4936276;29;20388;-52
2022/06/12 06:48:17;;;;;;;62.78;12.90;;;;;;;15.69;80.11;102199.34;4936641;29;20035;-53
2022/06/12 06:50:43;;;;;;;61.55;13.35;;;;;;;15.82;78.63;102199.75;4937284;29;20384;-53
2022/06/12 06:53:09;;;;;;;36.85;10.95;;;;;;;15.86;77.51;102207.66;4936933;29;20020;-53
2022/06/12 06:55:35;;;;;;;70.22;13.90;;;;;;;15.98;77.09;102212.34;4936268;29;20487;-53
2022/06/12 06:58:01;;;;;;;48.00;11.52;;;;;;;16.02;76.98;102208.97;4936951;29;20036;-53
2022/06/12 07:00:30;;;;;;;44.40;11.95;;;;;;;16.00;76.71;102210.69;4937014;29;20028;-54
2022/06/12 07:02:55;;;;;;;49.53;11.85;;;;;;;16.03;76.39;102199.47;4936041;29;20395;-54
2022/06/12 07:05:22;;;;;;;49.30;11.93;;;;;;;16.04;77.40;102209.94;4936754;29;20456;-54
2022/06/12 07:07:48;;;;;;;52.13;11.52;;;;;;;16.11;76.18;102208.38;4936041;29;20412;-53
2022/06/12 07:10:18;;;;;;;48.92;11.73;;;;;;;16.19;76.97;102208.59;4936483;29;20030;-54
2022/06/12 07:12:43;;;;;;;53.03;12.15;;;;;;;16.19;75.84;102206.91;4937080;29;20081;-54
2022/06/12 07:15:09;;;;;;;52.58;12.43;;;;;;;16.21;76.00;102209.53;4935971;29;20066;-56
2022/06/12 07:17:35;;;;;;;58.72;12.30;;;;;;;16.25;76.88;102211.38;4936443;29;20035;-54
2022/06/12 07:20:01;;;;;;;52.63;10.77;;;;;;;16.30;77.75;102212.38;4936540;29;20091;-55
2022/06/12 07:22:26;;;;;;;49.00;12.13;;;;;;;16.44;77.27;102213.63;4935803;29;20027;-54
2022/06/12 07:24:52;;;;;;;48.50;11.80;;;;;;;16.66;77.69;102210.75;4936169;29;20562;-55
2022/06/12 07:27:17;;;;;;;47.90;12.38;;;;;;;16.88;78.32;102209.56;4936636;29;20472;-54
2022/06/12 07:29:43;;;;;;;47.70;13.55;;;;;;;17.16;76.38;102211.16;4935636;29;20035;-54
2022/06/12 07:32:09;;;;;;;47.15;10.75;;;;;;;17.44;75.71;102210.09;4936212;29;20035;-55
2022/06/12 07:34:35;;;;;;;46.40;11.60;;;;;;;17.53;71.43;102209.44;4936436;29;20045;-55
2022/06/12 07:37:00;;;;;;;42.58;11.02;;;;;;;17.28;70.40;102210.56;4935200;29;20383;-54
2022/06/12 07:39:30;;;;;;;48.03;12.32;;;;;;;16.95;71.09;102219.31;4936153;29;20043;-54
2022/06/12 07:41:55;;;;;;;49.28;11.23;;;;;;;16.86;73.45;102219.06;4936014;29;20361;-55
2022/06/12 07:44:24;;;;;;;35.30;11.60;;;;;;;16.93;74.30;102227.09;4935494;29;20103;-54
2022/06/12 07:46:52;;;;;;;56.28;12.15;;;;;;;17.05;72.53;102216.09;4936111;29;20144;-55
2022/06/12 07:49:19;;;;;;;50.70;12.63;;;;;;;17.32;74.83;102211.53;4935960;29;20388;-55
2022/06/12 07:51:45;;;;;;;42.72;11.27;;;;;;;17.65;70.96;102219.25;4935242;29;20473;-54
2022/06/12 07:54:11;;;;;;;41.90;10.23;;;;;;;17.80;69.99;102225.63;4935979;29;20468;-54
2022/06/12 07:56:37;;;;;;;48.50;12.30;;;;;;;17.73;69.26;102222.03;4936091;29;20024;-54
2022/06/12 07:59:04;;;;;;;39.03;11.52;;;;;;;17.77;70.66;102216.03;4935171;29;20043;-55
2022/06/12 08:01:30;;;;;;;50.50;13.35;;;;;;;17.87;69.77;102217.09;4935715;29;20523;-55
2022/06/12 08:03:56;;;;;;;46.05;12.02;;;;;;;17.99;68.06;102217.38;4935798;29;20028;-55
2022/06/12 08:06:23;;;;;;;45.30;11.38;;;;;;;18.04;68.60;102220.97;4935108;29;20110;-56
2022/06/12 08:08:48;;;;;;;47.47;10.95;;;;;;;18.19;67.71;102217.81;4935969;29;20524;-56
2022/06/12 08:11:14;;;;;;;41.00;10.52;;;;;;;18.36;68.73;102219.84;4934774;29;20032;-54
2022/06/12 08:13:39;;;;;;;49.10;11.23;;;;;;;18.41;65.93;102210.38;4935923;29;20034;-55
2022/06/12 08:16:06;;;;;;;43.78;10.55;;;;;;;18.26;65.69;102213.59;4935551;29;20424;-56
2022/06/12 08:18:31;;;;;;;46.30;11.07;;;;;;;18.26;66.13;102213.59;4934906;29;20460;-55
2022/06/12 08:21:01;;;;;;;42.30;10.10;;;;;;;18.47;67.78;102215.72;4935445;29;20092;-56
2022/06/12 08:23:49;;;;;;;47.35;10.38;;;;;;;18.57;67.40;102219.38;4935656;29;20035;-54
2022/06/12 08:26:17;;;;;;;38.45;9.23;;;;;;;18.52;65.24;102215.81;4934572;29;20047;-53
2022/06/12 08:28:43;;;;;;;;;;;;;;;18.70;67.66;102213.53;4936121;29;20043;-52
2022/06/12 08:31:13;;;;;;;37.08;11.00;;;;;;;18.55;64.98;102213.25;4935311;29;19925;-53
2022/06/12 08:33:42;;;;;;;48.85;11.30;;;;;;;18.48;66.42;102214.00;4934868;29;20032;-53
2022/06/12 08:36:10;;;;;;;52.05;11.18;;;;;;;18.54;68.08;102217.59;4935124;29;20028;-53
2022/06/12 08:38:36;;;;;;;36.72;9.35;;;;;;;18.64;65.80;102217.75;4935626;29;20115;-52
2022/06/12 08:41:25;;;;;;;31.88;8.60;;;;;;;18.90;64.56;102216.53;4934654;29;20106;-53
2022/06/12 08:44:02;;;;;;;40.70;9.45;;;;;;;19.10;64.00;102213.34;4935298;29;20031;-53
2022/06/12 08:46:32;;;;;;;38.63;10.10;;;;;;;19.11;63.88;102215.13;4934760;29;20030;-53
2022/06/12 08:49:18;;;;;;;42.80;9.23;;;;;;;19.24;65.54;102209.22;4935436;29;20028;-52
2022/06/12 08:51:55;;;;;;;40.00;8.65;;;;;;;19.34;63.36;102207.63;4935415;29;20023;-52
2022/06/12 08:54:57;;;;;;;40.87;8.97;;;;;;;19.51;65.13;102206.97;4934504;29;20486;-52
2022/06/12 08:57:32;;;;;;;44.20;10.07;;;;;;;19.53;63.23;102203.53;4934724;29;20138;-51
2022/06/12 09:00:06;;;;;;;38.28;9.52;;;;;;;19.39;61.26;102203.34;4935322;29;20032;-53
2022/06/12 09:02:36;;;;;;;33.05;8.13;;;;;;;19.38;61.09;102198.97;4934455;29;20039;-53
2022/06/12 09:05:04;;;;;;;42.83;8.40;;;;;;;19.50;61.70;102189.56;4935442;29;20031;-53
2022/06/12 09:07:38;;;;;;;29.83;7.95;;;;;;;19.53;61.14;102187.84;4937450;29;20393;-53
2022/06/12 09:10:17;;;;;;;37.38;9.90;;;;;;;19.53;61.81;102189.59;4938928;29;20028;-53
2022/06/12 09:13:20;;;;;;;41.20;10.18;;;;;;;19.65;61.76;102187.16;4939014;29;20039;-53
2022/06/12 09:16:01;;;;;;;33.58;9.88;;;;;;;19.88;64.11;102183.97;4937352;29;20039;-53
2022/06/12 09:18:37;;;;;;;35.17;9.05;;;;;;;19.99;59.29;102187.59;4938769;29;20039;-53
2022/06/12 09:21:35;;;;;;;35.10;7.95;;;;;;;20.11;60.08;102183.38;4938571;29;20472;-53
2022/06/12 09:24:16;;;;;;;29.13;7.07;;;;;;;20.27;57.61;102187.94;4938082;29;20115;-53
2022/06/12 09:27:01;;;;;;;26.00;6.10;;;;;;;20.36;55.47;102184.50;4938658;29;20135;-53
2022/06/12 09:29:35;;;;;;;28.00;5.90;;;;;;;20.62;55.75;102184.78;4937827;29;20201;-53
2022/06/12 09:32:19;;;;;;;28.27;7.00;;;;;;;20.91;56.21;102185.91;4938750;29;20099;-53
2022/06/12 09:34:56;;;;;;;27.80;6.75;;;;;;;20.97;54.08;102186.84;4938667;29;20027;-53
2022/06/12 09:40:45;;;;;;;38.40;8.20;;;;;;;21.06;57.61;102186.03;4938682;29;20046;-54
2022/06/12 09:43:33;;;;;;;29.13;7.55;;;;;;;21.12;54.04;102186.09;4932818;29;20055;-54
2022/06/12 09:46:14;;;;;;;39.70;7.82;;;;;;;20.81;52.21;102185.84;4938255;29;20491;-53
2022/06/12 09:48:47;;;;;;;28.90;7.00;;;;;;;20.62;52.89;102187.38;4938340;29;20483;-55
2022/06/12 09:51:27;;;;;;;35.90;8.35;;;;;;;20.80;51.79;102193.66;4937449;29;20035;-56
2022/06/12 09:54:05;;;;;;;24.90;6.72;;;;;;;20.85;52.35;102186.72;4938209;29;20035;-56
2022/06/12 09:56:33;;;;;;;22.25;6.50;;;;;;;20.85;53.34;102187.63;4938038;29;20031;-56
2022/06/12 09:59:11;;;;;;;27.63;7.65;;;;;;;20.75;53.61;102187.50;4937771;29;20031;-54
2022/06/12 10:01:41;;;;;;;26.25;7.20;;;;;;;20.85;55.22;102182.38;4938056;29;20476;-54
2022/06/12 10:04:13;;;;;;;27.52;7.40;;;;;;;20.78;53.85;102191.03;4937153;29;20175;-54
2022/06/12 10:06:46;;;;;;;30.00;8.70;;;;;;;20.87;53.72;102177.16;4938224;29;20027;-53
2022/06/12 10:09:16;;;;;;;28.52;7.82;;;;;;;21.52;53.18;102175.84;4937742;29;20032;-53
2022/06/12 10:11:48;;;;;;;30.33;8.07;;;;;;;22.03;51.22;102168.19;4937577;29;20035;-53
2022/06/12 10:14:30;;;;;;;29.08;8.50;;;;;;;22.28;51.52;102172.63;4937776;29;20032;-53
2022/06/12 10:17:03;;;;;;;31.65;8.02;;;;;;;22.00;51.89;102178.69;4937304;29;20039;-54
2022/06/12 10:19:37;;;;;;;29.40;7.80;;;;;;;22.07;51.16;102169.06;4936426;29;20469;-54
2022/06/12 10:22:14;;;;;;;35.72;6.45;;;;;;;22.32;49.61;102180.53;4937586;29;20548;-54
2022/06/12 10:24:39;;;;;;;21.67;4.85;;;;;;;22.59;47.91;102173.56;4937921;29;20082;-54
2022/06/12 10:27:09;;;;;;;20.52;4.60;;;;;;;22.82;46.27;102163.06;4936586;29;20051;-54
2022/06/12 10:29:51;;;;;;;19.90;4.43;;;;;;;23.40;45.37;102158.59;4937692;29;20118;-54
2022/06/12 10:32:19;;;;;;;23.95;4.13;;;;;;;24.35;42.26;102166.06;4936584;29;20388;-53
2022/06/12 10:34:45;;;;;;;18.20;4.88;;;;;;;24.72;42.84;102157.91;4937539;29;20023;-54
2022/06/12 10:37:24;;;;;;;23.95;4.68;;;;;;;25.41;42.89;102172.16;4937175;29;20038;-56
2022/06/12 10:40:16;;;;;;;17.88;4.68;;;;;;;25.36;41.87;102166.97;4936649;29;20058;-54
2022/06/12 10:42:50;;;;;;;27.45;5.15;;;;;;;26.10;40.84;102165.16;4937423;29;20120;-54
2022/06/12 10:45:28;;;;;;;18.33;4.07;;;;;;;26.86;40.51;102159.56;4937386;29;20036;-54
2022/06/12 10:47:56;;;;;;;15.35;4.30;;;;;;;26.90;37.16;102153.31;4936464;29;20090;-54
2022/06/12 10:50:31;;;;;;;23.27;4.50;;;;;;;26.77;40.22;102157.09;4937085;29;20402;-54
2022/06/12 10:53:08;;;;;;;17.60;4.28;;;;;;;26.38;41.29;102168.25;4936217;29;20035;-54
2022/06/12 10:55:44;;;;;;;24.63;5.03;;;;;;;26.21;39.30;102163.25;4937362;29;20027;-54
2022/06/12 10:58:31;;;;;;;24.48;4.63;;;;;;;26.51;36.69;102163.66;4936879;29;20043;-55
2022/06/12 11:01:02;;;;;;;19.88;4.18;;;;;;;26.47;36.89;102164.59;4936082;29;20032;-54
2022/06/12 11:04:09;;;;;;;17.88;4.55;;;;;;;26.93;37.51;102161.22;4936834;29;20047;-54
2022/06/12 11:06:47;;;;;;;20.08;4.75;;;;;;;27.46;34.79;102149.63;4937094;29;20063;-54
2022/06/12 11:09:34;;;;;;;28.27;4.95;;;;;;;26.72;37.38;102148.31;4935877;29;20047;-54
2022/06/12 11:12:04;;;;;;;;;;;;;;;26.62;36.95;102151.13;4937080;29;20059;-54
2022/06/12 11:14:48;;;;;;;19.38;5.38;;;;;;;26.49;38.20;102160.16;4935931;29;20311;-54
2022/06/12 11:17:15;;;;;;;22.13;4.93;;;;;;;26.41;37.99;102151.47;4936432;29;20035;-55
2022/06/12 11:20:05;;;;;;;13.38;3.65;;;;;;;26.57;37.43;102146.81;4936680;29;20032;-54
2022/06/12 11:22:58;;;;;;;21.17;4.55;;;;;;;27.03;38.34;102148.66;4935830;29;20023;-54
2022/06/12 11:25:47;;;;;;;16.83;3.95;;;;;;;26.72;35.58;102150.97;4936496;29;20061;-54
2022/06/12 11:28:58;;;;;;;24.40;4.47;;;;;;;26.58;35.67;102143.28;4935559;29;20036;-54
2022/06/12 11:31:29;;;;;;;23.88;4.70;;;;;;;26.48;34.33;102146.97;4924715;29;20044;-54
2022/06/12 11:34:30;;;;;;;16.83;3.95;;;;;;;26.51;36.88;102150.44;4936285;29;20067;-54
2022/06/12 11:37:19;;;;;;;18.20;3.90;;;;;;;26.36;36.90;102132.19;4935613;29;20038;-54
2022/06/12 11:40:00;;;;;;;16.52;3.95;;;;;;;26.23;35.26;102137.66;4936581;29;20082;-55
2022/06/12 11:42:39;;;;;;;24.42;4.93;;;;;;;25.27;37.30;102138.88;4935535;29;20070;-54
2022/06/12 11:45:04;;;;;;;18.88;4.53;;;;;;;24.43;39.60;102140.53;4936001;29;20034;-54
2022/06/12 11:47:43;;;;;;;22.03;4.17;;;;;;;24.98;40.82;102140.09;4936393;29;20027;-54
2022/06/12 11:50:29;;;;;;;21.92;4.20;;;;;;;25.37;37.26;102128.25;4935229;29;20032;-54
2022/06/12 11:53:07;;;;;;;17.48;3.72;;;;;;;25.45;36.85;102121.13;4936142;29;20086;-54
2022/06/12 11:55:52;;;;;;;16.00;3.97;;;;;;;25.68;39.40;102118.19;4936106;29;20035;-54
2022/06/12 11:58:40;;;;;;;16.75;3.65;;;;;;;26.32;37.63;102120.78;4935330;29;20039;-54